Amberley Aerodrome, Australia
Current Conditions -  °F | °C
As of 1:00 PM on Sunday 21 Dec 2014 (Local Time) from YAMB Reporting Station
Broken Clouds Broken Clouds  
Wind Chill: 84°   Ceiling: 7500
Heat Index: 84°   Visibility: 6mi
Dew Point: 59°   Wind: 9mph
Humidity: 42%   Direction: 40°NE
Pressure: 29.97"   Gusts: NA
Location:  27.63°S, 152.72°E
Report Text: YAMB 210300Z AUTO 04008KT 9999 // SCT065 BKN075 29/15 Q1015
Loading
Personal Weather Stations






























Interactive Weather Map New forecast layout! Learn more

10-Day Weather Forecast

Advertisements
Track Severe Weather on mobile